Arcadia, Illinois
Current Conditions -  °F | °C
As of 10:35 PM on Wednesday 22 Oct 2014 (Local Time) from KIJX Reporting Station
Clear Clear  
Wind Chill: 38°   Ceiling: Unl
Heat Index: 41°   Visibility: 10mi
Dew Point: 37°   Wind: 5mph
Humidity: 83%   Direction: 130°SE
Pressure: 30.25"   Gusts: NA
Location:  39.7413°N, 90.2138°W
Report Text: KIJX 230335Z AUTO 13004KT 10SM CLR 05/03 A3025 RMK AO2 T00520026
Loading
Personal Weather Stations






























Interactive Weather Map New forecast layout! Learn more

10-Day Weather Forecast

Advertisements
Track Severe Weather on mobile